World Earthquakes Live™ YouTube
 

LIGHT EARTHQUAKE
A light earthquake hit NEAR COAST OF ECUADOR with a moment magnitude of Mw 4.1 at a depth of 5 km (shallow-focus earthquake, 30 minutes ago)

Great Quakes: Kobe, Japan (part 2) Watch! Earth`s force field Watch! A course on Earthquakes Watch! 50 years of plate tectonics. What is the driving force? Watch! Parked 737 Max being moved by wind and rain at Muscat International Airport, Oman 05/20/19 Watch! EARTH ARHITECTURE Watch! Introductory Astronomy - Lecture #11 - Comets and Meteors Watch! Global Earthquake Data with ArcGIS Watch! Introductory Astronomy - Lecture #21 - Geometry of the Universe Watch! Increasing Risk from Natural Disasters in the Twenty-first Century Watch!
In 2021, a number of 0 (strong to major) earthquakes were recorded worldwide, of which: 0 earthquakes between Mw 6.5 and Mw 6.9, 0 earthquakes between Mw 7.0 and Mw 7.9, 0 earthquakes between Mw 8.0 and Mw 8.9 and 0 earthquakes greater than Mw 9.0
3 Users Online United States (66.67%) - France (33.33%)
UTC time Lat. Lon. Mag. Dep. Zone/Region EMSC
2021-01-16T14:46:25.0Z-9.09°S118.87°EM3.162 SUMBAWA REGION, INDONESIA
2021-01-16T14:42:58.0Z1.12°N-79.62°WM4.15 NEAR COAST OF ECUADOR
2021-01-16T14:36:56.0Z-2.84°S127.99°EM3.010 CERAM SEA, INDONESIA
2021-01-16T14:31:49.0Z-9.04°S117.19°EM2.710 SUMBAWA REGION, INDONESIA
2021-01-16T14:17:57.2Z19.26°N-155.39°WM2.333 ISLAND OF HAWAII, HAWAII
2021-01-16T14:17:34.0Z-8.72°S121.31°EM3.3158 FLORES REGION, INDONESIA
2021-01-16T14:11:02.0Z6.97°N126.87°EM3.54 MINDANAO, PHILIPPINES
2021-01-16T13:58:51.9Z35.71°N-4.58°WM2.396 STRAIT OF GIBRALTAR
2021-01-16T13:47:55.3Z35.98°N-97.26°WM2.04 OKLAHOMA
2021-01-16T13:42:30.0Z-22.16°S-68.49°WM3.8116 ANTOFAGASTA, CHILE
2021-01-16T13:41:00.4Z34.73°N25.07°EM3.22 CRETE, GREECE
2021-01-16T13:38:58.0Z1.24°N-79.76°WM3.77 NEAR COAST OF ECUADOR
2021-01-16T13:28:57.3Z41.86°N2.9°EM1.87 SPAIN
2021-01-16T13:18:35.1Z38.33°N15.45°EM2.3119 SICILY, ITALY
2021-01-16T13:17:04.0Z20.01°N-70.45°WM3.431 DOMINICAN REPUBLIC REGION
2021-01-16T12:58:14.0Z1.16°N-79.69°WM3.65 NEAR COAST OF ECUADOR
2021-01-16T12:25:41.5Z18.64°N145.35°EM4.6352 PAGAN REG., N. MARIANA ISLANDS
2021-01-16T12:15:22.0Z-0.65°S123.37°EM3.410 SULAWESI, INDONESIA
2021-01-16T12:14:45.0Z8.64°N127.46°EM3.399 PHILIPPINE ISLANDS REGION
2021-01-16T12:05:08.0Z0.7°N129.3°EM4.010 HALMAHERA, INDONESIA
2021-01-16T11:49:49.0Z-19.27°S-69.17°WM3.4111 TARAPACA, CHILE
2021-01-16T11:40:40.3Z41.86°N3.01°EM3.25 SPAIN
2021-01-16T11:37:04.5Z46.2°N6.91°EM1.05 SWITZERLAND
2021-01-16T11:37:03.3Z19.25°N-155.4°WM2.837 ISLAND OF HAWAII, HAWAII
2021-01-16T11:30:43.0Z8.6°N122.66°EM3.1144 MINDANAO, PHILIPPINES
2021-01-16T11:25:50.0Z-31.03°S-71.38°WM3.264 COQUIMBO, CHILE
2021-01-16T11:15:27.5Z17.96°N-66.99°WM2.214 PUERTO RICO REGION
2021-01-16T11:10:53.0Z-29.93°S-72.07°WM3.331 OFFSHORE COQUIMBO, CHILE
2021-01-16T10:55:43.0Z1.15°N-79.67°WM4.55 NEAR COAST OF ECUADOR
2021-01-16T10:45:51.0Z-2.89°S118.87°EM3.429 SULAWESI, INDONESIA
UTC time Lat. Lon. Mag. Dep. Zone/Region USGS
2021-01-16, 14:18:0932.75°N-115.83°WM1.03 16KM E OF OCOTILLO, CA
2021-01-16, 14:17:5719.26°N-155.39°WM2.333 11 KM NE OF PāHALA, HAWAII
2021-01-16, 13:47:5535.98°N-97.26°WM2.04 3 KM NW OF COYLE, OKLAHOMA
2021-01-16, 13:19:1138.16°N-118°WM1.36 27 KM SSE OF MINA, NEVADA
2021-01-16, 13:11:4637.52°N-117.78°WM1.29 CALIFORNIA-NEVADA BORDER REGION
2021-01-16, 13:07:4837.91°N-118.54°WM1.73 41KM NNE OF TOMS PLACE, CA
2021-01-16, 12:49:0236.13°N-117.83°WM1.43 15KM NE OF COSO JUNCTION, CA
2021-01-16, 12:43:5137.89°N-118.54°WM1.50 9 KM NW OF BENTON, CALIFORNIA
2021-01-16, 12:42:0560.96°N-147.13°WM1.826 26 KM WNW OF TATITLEK, ALASKA
2021-01-16, 12:36:4962.8°N-149.71°WM1.619 43 KM NNE OF CHASE, ALASKA
2021-01-16, 12:33:0860.23°N-152.66°WM2.223 SOUTHERN ALASKA
2021-01-16, 12:25:4118.7°N145.25°EM4.6345 PAGAN REGION, NORTHERN MARIANA ISLANDS
2021-01-16, 12:24:0237.91°N-118.57°WM1.51 12 KM NW OF BENTON, CALIFORNIA
2021-01-16, 12:12:1119.21°N-155.42°WM1.933 6 KM E OF PāHALA, HAWAII
2021-01-16, 12:08:2337.91°N-118.55°WM1.812 11 KM NNW OF BENTON, CALIFORNIA
2021-01-16, 11:47:3132.62°N-115.73°WM1.64 14KM WNW OF PROGRESO, B.C., MX
2021-01-16, 11:37:0419.22°N-155.37°WM2.532 11 KM ENE OF PāHALA, HAWAII
2021-01-16, 11:29:4462.01°N-151.29°WM1.985 6 KM ENE OF SKWENTNA, ALASKA
2021-01-16, 11:24:4638.17°N-118.08°WM1.42 24 KM S OF MINA, NEVADA
2021-01-16, 11:20:1038.19°N-117.73°WM1.111 39 KM SE OF MINA, NEVADA
2021-01-16, 11:15:2717.96°N-66.99°WM2.214 6 KM ESE OF LA PARGUERA, PUERTO RICO
2021-01-16, 11:13:2438.81°N-122.77°WM1.30 4KM WSW OF COBB, CA
2021-01-16, 11:01:0438.15°N-118.04°WM1.02 27 KM SSE OF MINA, NEVADA
2021-01-16, 10:58:2760.22°N-147.47°WM2.386 34 KM ENE OF CHENEGA, ALASKA
2021-01-16, 10:56:2163.18°N-149.23°WM1.581 27 KM SSW OF CANTWELL, ALASKA
2021-01-16, 10:54:4034.24°N-117.55°WM1.17 6KM WSW OF LYTLE CREEK, CA
2021-01-16, 10:46:4959.8°N-153.56°WM2.3139 30 KM E OF PEDRO BAY, ALASKA
2021-01-16, 10:43:410.88°N-79.7°WM4.535 10 KM SSW OF ESMERALDAS, ECUADOR
2021-01-16, 10:38:4047.47°N-121.99°WM2.120 PUGET SOUND REGION, WASHINGTON
2021-01-16, 10:38:2637.91°N-118.53°WM2.611 40KM NNE OF TOMS PLACE, CA
GLOBAL SEISMIC RISK
NOW: NORMAL SEISMIC RISK
Light to moderate earthquakes could take place!
SIGNIFICANT EARTHQUAKES IN JANUARY 2021
No significant Mw 6.5+ earthquakes occured in January 2021!
MOST RISKY AREAS FOR A Mw 6.5+ EARTHQUAKE IN JANUARY 2021
01. VANUATU (6.05%)
02. JAPAN (5.98%)
03. INDONESIA (5.55%)
04. CHILE (5.44%)
05. SOLOMON ISLANDS (5.17%)
06. MEXICO (4.63%)
07. ALASKA (4.57%)
08. CALIFORNIA (4.57%)
09. LOYALTY ISLANDS (4.08%)
10. INDIA (3.83%)
11. PERU (3.29%)
12. FIJI (3.19%)
13. ECUADOR (3.03%)
14. PAPUA NEW GUINEA (2.7%)
15. KURIL ISLANDS (2.66%)
MOST RISKY DAYS FOR A Mw 6.5+ EARTHQUAKE TO OCCUR IN THE WORLD
01. SUNDAY (15.7377%)
02. TUESDAY (15%)
03. FRIDAY (14.7541%)
04. SATURDAY (14.1803%)
05. WEDNESDAY (13.9344%)
06. MONDAY (13.9344%)
07. THURSDAY (12.459%)